createdAt,value
2018-03-04T00:01:38.899Z,17.73
2018-03-04T00:05:42.266Z,18.13
2018-03-04T00:09:45.717Z,19.27
2018-03-04T00:13:49.096Z,17.83
2018-03-04T00:17:53.228Z,17.17
2018-03-04T00:21:57.369Z,18.37
2018-03-04T00:26:00.779Z,19.73
2018-03-04T00:30:04.146Z,18.50
2018-03-04T00:34:08.318Z,20.37
2018-03-04T00:38:11.703Z,19.47
2018-03-04T00:42:15.111Z,18.10
2018-03-04T00:46:18.482Z,17.60
2018-03-04T00:50:21.862Z,19.03
2018-03-04T00:54:25.275Z,18.50
2018-03-04T00:58:28.652Z,18.47
2018-03-04T01:02:32.023Z,17.77
2018-03-04T01:06:36.249Z,17.87
2018-03-04T01:10:40.457Z,16.57
2018-03-04T01:14:43.824Z,17.63
2018-03-04T01:18:47.217Z,17.33
2018-03-04T01:22:50.599Z,18.23
2018-03-04T01:26:54.748Z,16.73
2018-03-04T01:30:58.159Z,17.63
2018-03-04T01:35:01.549Z,16.40
2018-03-04T01:39:04.956Z,14.27
2018-03-04T01:43:08.324Z,16.43
2018-03-04T01:47:11.736Z,15.13
2018-03-04T01:51:15.128Z,16.33
2018-03-04T01:55:18.521Z,15.97
2018-03-04T01:59:21.934Z,16.63
2018-03-04T02:03:25.308Z,16.20
2018-03-04T02:07:28.698Z,17.37
2018-03-04T02:11:32.044Z,17.30
2018-03-04T02:15:36.195Z,16.50
2018-03-04T02:19:39.557Z,16.63
2018-03-04T02:23:43.055Z,16.40
2018-03-04T02:27:46.434Z,16.33
2018-03-04T02:31:49.806Z,16.07
2018-03-04T02:35:53.185Z,15.93
2018-03-04T02:39:56.574Z,16.33
2018-03-04T02:43:59.949Z,17.43
2018-03-04T02:48:04.100Z,17.30
2018-03-04T02:52:07.464Z,15.97
2018-03-04T02:56:11.609Z,16.40
2018-03-04T03:00:14.986Z,16.30
2018-03-04T03:04:18.554Z,16.67
2018-03-04T03:08:21.967Z,17.37
2018-03-04T03:12:25.334Z,17.13
2018-03-04T03:16:29.490Z,17.60
2018-03-04T03:20:32.858Z,16.27
2018-03-04T03:24:37.225Z,18.03
2018-03-04T03:28:40.713Z,18.67
2018-03-04T03:32:44.089Z,18.03
2018-03-04T03:36:47.474Z,17.57
2018-03-04T03:40:50.908Z,17.77
2018-03-04T03:44:55.186Z,19.07
2018-03-04T03:48:58.558Z,17.67
2018-03-04T03:53:01.930Z,18.53
2018-03-04T03:57:05.387Z,18.63
2018-03-04T04:01:08.838Z,19.23
2018-03-04T04:05:12.204Z,19.63
2018-03-04T04:09:15.797Z,18.70
2018-03-04T04:13:19.163Z,19.53
2018-03-04T04:17:22.524Z,19.23
2018-03-04T04:21:25.898Z,18.93
2018-03-04T04:25:30.037Z,19.40
2018-03-04T04:29:33.404Z,20.07
2018-03-04T04:33:37.009Z,21.47
2018-03-04T04:37:40.382Z,21.33
2018-03-04T04:41:43.758Z,19.17
2018-03-04T04:45:47.105Z,21.07
2018-03-04T04:49:50.474Z,20.10
2018-03-04T04:53:53.883Z,21.13
2018-03-04T04:57:57.335Z,22.77
2018-03-04T05:02:00.816Z,19.53
2018-03-04T05:06:04.188Z,20.70
2018-03-04T05:10:08.321Z,22.40
2018-03-04T05:14:11.716Z,22.33
2018-03-04T05:18:15.922Z,22.53
2018-03-04T05:22:19.284Z,23.67
2018-03-04T05:26:22.646Z,22.40
2018-03-04T05:30:26.782Z,23.17
2018-03-04T05:34:30.186Z,24.53
2018-03-04T05:38:33.542Z,23.03
2018-03-04T05:42:36.879Z,24.17
2018-03-04T05:46:41.117Z,23.43
2018-03-04T05:50:45.308Z,23.07
2018-03-04T05:54:48.760Z,23.70
2018-03-04T05:58:52.122Z,26.27
2018-03-04T06:02:55.506Z,23.40
2018-03-04T06:06:58.906Z,22.03
2018-03-04T06:11:02.285Z,24.70
2018-03-04T06:15:05.648Z,25.43
2018-03-04T06:19:09.009Z,26.27
2018-03-04T06:23:12.476Z,26.50
2018-03-04T06:27:16.623Z,23.43
2018-03-04T06:31:20.020Z,25.97
2018-03-04T06:35:24.149Z,23.23
2018-03-04T06:39:27.562Z,27.40
2018-03-04T06:43:30.998Z,25.83
2018-03-04T06:47:34.443Z,26.23
2018-03-04T06:51:38.585Z,25.67
2018-03-04T06:55:41.962Z,23.97
2018-03-04T06:59:45.342Z,24.03
2018-03-04T07:03:48.719Z,27.50
2018-03-04T07:07:52.128Z,25.10
2018-03-04T07:11:55.511Z,25.47
2018-03-04T07:15:59.673Z,25.80
2018-03-04T07:20:03.878Z,25.87
2018-03-04T07:24:07.265Z,25.10
2018-03-04T07:28:11.484Z,26.40
2018-03-04T07:32:15.632Z,25.50
2018-03-04T07:36:19.046Z,24.63
2018-03-04T07:40:22.406Z,23.57
2018-03-04T07:44:25.818Z,24.67
2018-03-04T07:48:29.198Z,26.93
2018-03-04T07:52:32.655Z,28.23
2018-03-04T07:56:36.058Z,23.57
2018-03-04T08:00:39.466Z,25.27
2018-03-04T08:04:42.996Z,22.77
2018-03-04T08:08:46.402Z,24.50
2018-03-04T08:12:49.796Z,24.03
2018-03-04T08:16:53.172Z,23.93
2018-03-04T08:20:57.366Z,23.97
2018-03-04T08:25:18.568Z,23.83
2018-03-04T08:29:21.940Z,23.87
2018-03-04T08:33:26.099Z,23.90
2018-03-04T08:37:29.494Z,24.07
2018-03-04T08:41:32.894Z,24.33
2018-03-04T08:45:36.253Z,24.20
2018-03-04T08:49:39.696Z,24.60
2018-03-04T08:53:43.896Z,25.00
2018-03-04T08:57:47.332Z,20.90
2018-03-04T09:01:50.705Z,24.50
2018-03-04T09:05:54.089Z,26.73
2018-03-04T09:09:57.490Z,25.17
2018-03-04T09:14:00.928Z,27.53
2018-03-04T09:18:05.104Z,26.33
2018-03-04T09:22:08.479Z,28.70
2018-03-04T09:26:12.622Z,22.60
2018-03-04T09:30:15.995Z,26.50
2018-03-04T09:34:20.147Z,23.77
2018-03-04T09:38:23.597Z,25.87
2018-03-04T09:42:26.972Z,24.93
2018-03-04T09:46:30.365Z,31.00
2018-03-04T09:50:33.962Z,24.70
2018-03-04T09:54:38.093Z,25.43
2018-03-04T09:58:41.589Z,25.33
2018-03-04T10:02:45.741Z,25.00
2018-03-04T10:06:49.381Z,25.47
2018-03-04T10:10:52.768Z,25.17
2018-03-04T10:14:56.215Z,24.30
2018-03-04T10:19:00.363Z,24.47
2018-03-04T10:23:04.513Z,25.67
2018-03-04T10:27:07.991Z,28.67
2018-03-04T10:31:12.220Z,26.83
2018-03-04T10:35:16.371Z,27.60
2018-03-04T10:39:19.734Z,26.77
2018-03-04T10:43:23.090Z,28.17
2018-03-04T10:47:26.524Z,29.20
2018-03-04T10:51:29.897Z,28.20
2018-03-04T10:55:33.281Z,29.27
2018-03-04T10:59:36.667Z,26.53
2018-03-04T11:03:40.802Z,29.10
2018-03-04T11:07:45.010Z,28.57
2018-03-04T11:11:48.407Z,29.73
2018-03-04T11:15:51.772Z,30.70
2018-03-04T11:19:55.173Z,30.03
2018-03-04T11:23:58.585Z,29.10
2018-03-04T11:28:01.990Z,22.33
2018-03-04T11:32:05.378Z,25.00
2018-03-04T11:36:09.691Z,28.63
2018-03-04T11:40:13.834Z,29.23
2018-03-04T11:44:17.228Z,33.70
2018-03-04T11:48:20.646Z,29.77
2018-03-04T11:52:24.010Z,30.63
2018-03-04T11:56:27.519Z,29.60
2018-03-04T12:00:31.106Z,31.77
2018-03-04T12:04:34.495Z,31.77
2018-03-04T12:08:37.869Z,29.40
2018-03-04T12:12:41.261Z,28.53
2018-03-04T12:16:45.510Z,31.17
2018-03-04T12:20:48.870Z,30.40
2018-03-04T12:24:52.265Z,30.23
2018-03-04T12:28:55.625Z,31.37
2018-03-04T12:32:59.015Z,32.13
2018-03-04T12:37:03.169Z,31.77
2018-03-04T12:41:06.542Z,32.20
2018-03-04T12:45:10.662Z,34.20
2018-03-04T12:49:14.799Z,32.13
2018-03-04T12:53:18.422Z,30.17
2018-03-04T12:57:21.829Z,30.20
2018-03-04T13:01:25.219Z,30.50
2018-03-04T13:05:28.916Z,30.43
2018-03-04T13:09:33.568Z,34.30
2018-03-04T13:13:37.117Z,29.40
2018-03-04T13:17:40.509Z,32.37
2018-03-04T13:21:43.904Z,32.27
2018-03-04T13:25:47.420Z,31.47
2018-03-04T13:29:50.880Z,34.63
2018-03-04T13:33:55.780Z,32.23
2018-03-04T13:37:59.178Z,32.80
2018-03-04T13:42:02.547Z,32.63
2018-03-04T13:46:06.703Z,31.77
2018-03-04T13:50:10.094Z,26.13
2018-03-04T13:54:13.548Z,33.13
2018-03-04T13:58:17.000Z,30.90
2018-03-04T14:02:20.443Z,34.17
2018-03-04T14:06:23.818Z,32.00
2018-03-04T14:10:27.223Z,33.00
2018-03-04T14:14:31.483Z,34.17
2018-03-04T14:18:34.866Z,31.83
2018-03-04T14:22:38.442Z,32.57
2018-03-04T14:26:41.879Z,32.10
2018-03-04T14:30:45.265Z,29.10
2018-03-04T14:34:49.392Z,32.50
2018-03-04T14:38:53.635Z,32.33
2018-03-04T14:42:57.001Z,31.80
2018-03-04T14:47:00.327Z,31.00
2018-03-04T14:51:04.468Z,31.87
2018-03-04T14:55:07.948Z,33.27
2018-03-04T14:59:11.333Z,32.67
2018-03-04T15:03:14.726Z,32.33
2018-03-04T15:07:18.235Z,31.63
2018-03-04T15:11:21.745Z,25.33
2018-03-04T15:15:25.331Z,31.57
2018-03-04T15:19:28.678Z,34.97
2018-03-04T15:23:32.185Z,34.03
2018-03-04T15:27:35.560Z,34.40
2018-03-04T15:31:38.954Z,32.90
2018-03-04T15:35:42.330Z,35.23
2018-03-04T15:39:46.494Z,34.43
2018-03-04T15:43:49.945Z,33.17
2018-03-04T15:47:53.540Z,32.40
2018-03-04T15:51:56.912Z,29.30
2018-03-04T15:56:00.290Z,32.60
2018-03-04T16:00:04.479Z,35.60
2018-03-04T16:04:07.860Z,33.93
2018-03-04T16:08:11.252Z,30.67
2018-03-04T16:12:14.630Z,36.03
2018-03-04T16:16:18.797Z,33.00
2018-03-04T16:20:22.264Z,31.33
2018-03-04T16:24:26.592Z,34.37
2018-03-04T16:28:30.778Z,34.17
2018-03-04T16:32:34.245Z,33.47
2018-03-04T16:36:37.655Z,32.43
2018-03-04T16:40:41.060Z,32.10
2018-03-04T16:44:44.454Z,34.77
2018-03-04T16:48:47.825Z,33.33
2018-03-04T16:52:51.219Z,33.13
2018-03-04T16:56:54.611Z,34.13
2018-03-04T17:00:58.010Z,32.93
2018-03-04T17:05:01.427Z,31.83
2018-03-04T17:09:04.793Z,33.30
2018-03-04T17:13:08.167Z,34.17
2018-03-04T17:17:12.530Z,33.33
2018-03-04T17:21:15.940Z,33.70
2018-03-04T17:25:19.374Z,34.03
2018-03-04T17:29:22.803Z,32.20
2018-03-04T17:33:26.189Z,32.97
2018-03-04T17:37:29.694Z,34.03
2018-03-04T17:41:33.066Z,35.43
2018-03-04T17:45:36.474Z,32.13
2018-03-04T17:49:39.879Z,31.03
2018-03-04T17:53:43.252Z,32.70
2018-03-04T17:57:46.623Z,30.17
2018-03-04T18:01:50.103Z,32.27
2018-03-04T18:05:53.515Z,33.57
2018-03-04T18:09:56.895Z,31.07
2018-03-04T18:14:01.095Z,32.53
2018-03-04T18:18:04.504Z,32.03
2018-03-04T18:22:07.897Z,33.43
2018-03-04T18:26:11.287Z,32.40
2018-03-04T18:30:15.512Z,32.60
2018-03-04T18:34:19.034Z,32.43
2018-03-04T18:38:22.485Z,33.30
2018-03-04T18:42:25.880Z,32.17
2018-03-04T18:46:30.068Z,28.77
2018-03-04T18:50:33.838Z,30.43
2018-03-04T18:54:37.262Z,34.80
2018-03-04T18:58:40.649Z,33.00
2018-03-04T19:02:44.015Z,36.77
2018-03-04T19:06:47.388Z,32.43
2018-03-04T19:10:50.782Z,32.87
2018-03-04T19:14:54.194Z,32.47
2018-03-04T19:18:57.601Z,33.57
2018-03-04T19:23:01.051Z,30.53
2018-03-04T19:27:04.557Z,32.03
2018-03-04T19:31:07.954Z,33.03
2018-03-04T19:35:11.333Z,31.53
2018-03-04T19:39:14.789Z,32.00
2018-03-04T19:43:19.067Z,31.03
2018-03-04T19:47:22.459Z,32.23
2018-03-04T19:51:25.861Z,31.87
2018-03-04T19:55:29.303Z,31.53
2018-03-04T19:59:32.725Z,33.17
2018-03-04T20:03:36.153Z,32.40
2018-03-04T20:07:40.465Z,30.00
2018-03-04T20:11:43.877Z,29.17
2018-03-04T20:15:47.311Z,32.40
2018-03-04T20:19:50.913Z,31.47
2018-03-04T20:23:54.347Z,31.00
2018-03-04T20:27:57.863Z,28.93
2018-03-04T20:32:01.253Z,31.40
2018-03-04T20:36:04.672Z,30.77
2018-03-04T20:40:08.059Z,31.30
2018-03-04T20:44:11.471Z,30.23
2018-03-04T20:48:14.856Z,31.37
2018-03-04T20:52:19.055Z,30.50
2018-03-04T20:56:22.451Z,28.77
2018-03-04T21:00:25.822Z,30.97
2018-03-04T21:04:29.311Z,30.90
2018-03-04T21:08:32.737Z,30.37
2018-03-04T21:12:36.246Z,30.50
2018-03-04T21:16:39.779Z,28.67
2018-03-04T21:20:43.754Z,28.30
2018-03-04T21:24:47.893Z,30.23
2018-03-04T21:28:51.272Z,28.27
2018-03-04T21:32:55.437Z,28.37
2018-03-04T21:36:58.866Z,28.53
2018-03-04T21:41:02.319Z,28.63
2018-03-04T21:45:06.549Z,29.77
2018-03-04T21:49:09.916Z,30.03
2018-03-04T21:53:13.332Z,30.00
2018-03-04T21:57:16.783Z,29.47
2018-03-04T22:01:20.271Z,28.80
2018-03-04T22:05:24.440Z,28.97
2018-03-04T22:09:27.814Z,30.03
2018-03-04T22:13:31.170Z,29.97
2018-03-04T22:17:34.575Z,31.07
2018-03-04T22:21:37.955Z,29.70
2018-03-04T22:25:42.104Z,32.23
2018-03-04T22:29:45.432Z,29.67
2018-03-04T22:33:49.569Z,28.90
2018-03-04T22:37:53.704Z,31.80
2018-03-04T22:41:57.066Z,33.30
2018-03-04T22:46:00.447Z,32.37
2018-03-04T22:50:03.832Z,30.90
2018-03-04T22:54:07.273Z,32.77
2018-03-04T22:58:10.627Z,32.03
2018-03-04T23:02:14.842Z,32.20
2018-03-04T23:06:18.971Z,33.73
2018-03-04T23:10:23.129Z,33.30
2018-03-04T23:14:26.516Z,33.93
2018-03-04T23:18:29.912Z,34.35
2018-03-04T23:22:34.150Z,34.87
2018-03-04T23:26:37.669Z,33.47
2018-03-04T23:30:41.021Z,33.60
2018-03-04T23:34:44.525Z,34.00
2018-03-04T23:38:47.924Z,35.27
2018-03-04T23:42:51.274Z,34.07
2018-03-04T23:46:54.637Z,34.20
2018-03-04T23:50:58.007Z,34.80
2018-03-04T23:55:01.394Z,35.67
2018-03-04T23:59:04.779Z,34.73
